createdAt,value
2023-03-26T00:00:11.638Z,85.22
2023-03-26T00:05:15.065Z,85.23
2023-03-26T00:10:17.019Z,85.32
2023-03-26T00:15:18.995Z,85.60
2023-03-26T00:20:20.668Z,85.55
2023-03-26T00:25:23.882Z,85.98
2023-03-26T00:30:26.142Z,85.67
2023-03-26T00:35:29.581Z,85.97
2023-03-26T00:40:32.107Z,86.14
2023-03-26T00:45:33.621Z,86.47
2023-03-26T00:50:35.596Z,86.13
2023-03-26T00:55:37.454Z,86.32
2023-03-26T01:00:46.840Z,86.40
2023-03-26T01:05:53.013Z,86.36
2023-03-26T01:11:03.493Z,86.38
2023-03-26T01:16:20.206Z,86.25
2023-03-26T01:21:30.490Z,86.13
2023-03-26T01:26:32.059Z,86.02
2023-03-26T01:31:43.627Z,86.01
2023-03-26T01:36:53.634Z,85.81
2023-03-26T01:42:02.951Z,85.63
2023-03-26T01:47:06.446Z,85.64
2023-03-26T01:52:16.614Z,85.63
2023-03-26T01:57:27.357Z,85.49
2023-03-26T02:02:44.768Z,85.33
2023-03-26T02:08:05.529Z,85.17
2023-03-26T02:13:07.347Z,85.12
2023-03-26T02:18:13.548Z,85.03
2023-03-26T02:23:15.810Z,85.10
2023-03-26T02:28:17.298Z,85.15
2023-03-26T02:33:18.805Z,84.84
2023-03-26T02:38:20.897Z,84.96
2023-03-26T02:43:22.767Z,84.65
2023-03-26T02:48:24.282Z,84.63
2023-03-26T02:53:29.981Z,84.61
2023-03-26T02:58:31.914Z,85.03
2023-03-26T03:03:34.594Z,84.86
2023-03-26T03:08:36.295Z,84.48
2023-03-26T03:13:37.871Z,84.13
2023-03-26T03:18:39.496Z,84.10
2023-03-26T03:23:41.032Z,83.94
2023-03-26T03:28:43.424Z,84.44
2023-03-26T03:33:46.700Z,85.06
2023-03-26T03:38:49.050Z,84.94
2023-03-26T03:43:52.253Z,84.70
2023-03-26T03:48:53.794Z,84.63
2023-03-26T03:53:55.940Z,84.91
2023-03-26T03:58:58.480Z,85.26
2023-03-26T04:04:00.703Z,85.43
2023-03-26T04:09:02.563Z,86.29
2023-03-26T04:14:04.138Z,86.42
2023-03-26T04:19:05.690Z,85.86
2023-03-26T04:24:07.441Z,85.82
2023-03-26T04:29:12.993Z,85.75
2023-03-26T04:34:26.428Z,86.01
2023-03-26T04:39:29.398Z,85.94
2023-03-26T04:44:32.390Z,86.12
2023-03-26T04:49:33.919Z,86.26
2023-03-26T04:54:36.269Z,86.17
2023-03-26T04:59:37.768Z,85.65
2023-03-26T05:04:43.953Z,85.53
2023-03-26T05:09:45.736Z,85.22
2023-03-26T05:14:47.549Z,84.78
2023-03-26T05:19:49.236Z,84.60
2023-03-26T05:24:51.320Z,84.48
2023-03-26T05:29:52.826Z,84.05
2023-03-26T05:34:54.349Z,83.45
2023-03-26T05:39:56.334Z,83.32
2023-03-26T05:44:57.834Z,82.76
2023-03-26T05:49:59.521Z,82.35
2023-03-26T05:55:01.618Z,81.99
2023-03-26T06:00:06.263Z,81.42
2023-03-26T06:05:08.620Z,81.02
2023-03-26T06:10:10.978Z,80.75
2023-03-26T06:15:20.040Z,80.40
2023-03-26T06:20:21.607Z,79.76
2023-03-26T06:25:23.134Z,79.12
2023-03-26T06:30:24.734Z,77.62
2023-03-26T06:35:26.552Z,76.99
2023-03-26T06:40:29.084Z,76.54
2023-03-26T06:45:33.117Z,77.10
2023-03-26T06:50:34.666Z,78.26
2023-03-26T06:55:36.180Z,79.47
2023-03-26T07:00:38.073Z,81.34
2023-03-26T07:05:42.694Z,82.82
2023-03-26T07:10:44.300Z,83.51
2023-03-26T07:15:46.367Z,83.76
2023-03-26T07:20:48.300Z,83.21
2023-03-26T07:25:50.472Z,82.96
2023-03-26T07:31:27.288Z,81.99
2023-03-26T07:36:47.270Z,80.11
2023-03-26T07:42:16.485Z,78.74
2023-03-26T07:47:29.863Z,78.08
2023-03-26T07:52:31.740Z,76.00
2023-03-26T07:57:50.202Z,74.72
2023-03-26T08:03:34.674Z,74.66
2023-03-26T08:08:50.999Z,74.06
2023-03-26T08:14:14.485Z,74.10
2023-03-26T08:19:22.540Z,73.51
2023-03-26T08:24:39.028Z,72.18
2023-03-26T08:30:01.712Z,72.07
2023-03-26T08:35:04.499Z,70.99
2023-03-26T08:40:07.176Z,70.12
2023-03-26T08:45:40.369Z,69.10
2023-03-26T08:50:59.345Z,68.79
2023-03-26T08:56:42.340Z,69.06
2023-03-26T09:02:24.372Z,69.10
2023-03-26T09:07:48.964Z,68.71
2023-03-26T09:13:06.348Z,67.65
2023-03-26T09:18:32.603Z,64.57
2023-03-26T09:24:03.489Z,62.70
2023-03-26T09:29:32.295Z,62.45
2023-03-26T09:35:11.883Z,62.73
2023-03-26T09:40:20.618Z,62.45
2023-03-26T09:45:53.018Z,62.19
2023-03-26T09:51:12.076Z,61.14
2023-03-26T09:56:26.476Z,60.90
2023-03-26T10:02:08.594Z,60.49
2023-03-26T10:07:45.015Z,60.21
2023-03-26T10:12:57.712Z,59.22
2023-03-26T10:18:30.591Z,58.44
2023-03-26T10:23:34.811Z,57.64
2023-03-26T10:28:56.935Z,58.50
2023-03-26T10:34:28.883Z,59.44
2023-03-26T10:39:46.995Z,53.75
2023-03-26T10:45:17.902Z,40.82
2023-03-26T10:50:57.340Z,41.38
2023-03-26T10:56:16.814Z,45.51
2023-03-26T11:01:28.958Z,45.39
2023-03-26T11:06:41.962Z,45.56
2023-03-26T11:11:48.388Z,42.48
2023-03-26T11:17:09.040Z,41.11
2023-03-26T11:22:41.405Z,40.80
2023-03-26T11:27:53.104Z,43.53
2023-03-26T11:32:59.870Z,41.56
2023-03-26T11:38:17.272Z,37.23
2023-03-26T11:43:26.613Z,40.49
2023-03-26T11:48:33.333Z,43.31
2023-03-26T11:53:38.726Z,43.45
2023-03-26T11:59:01.213Z,36.41
2023-03-26T12:04:11.179Z,34.24
2023-03-26T12:09:17.720Z,34.55
2023-03-26T12:14:24.566Z,36.99
2023-03-26T12:19:29.154Z,40.13
2023-03-26T12:24:36.444Z,42.76
2023-03-26T12:29:38.386Z,44.92
2023-03-26T12:34:40.749Z,45.76
2023-03-26T12:40:09.450Z,44.14
2023-03-26T12:45:07.141Z,46.86
2023-03-26T12:50:14.646Z,49.16
2023-03-26T12:55:45.906Z,50.17
2023-03-26T13:00:57.171Z,49.86
2023-03-26T13:06:06.967Z,49.15
2023-03-26T13:11:30.642Z,49.98
2023-03-26T13:16:48.587Z,45.21
2023-03-26T13:22:24.777Z,39.53
2023-03-26T13:27:42.013Z,39.17
2023-03-26T13:33:15.901Z,37.00
2023-03-26T13:38:40.727Z,39.25
2023-03-26T13:43:48.288Z,42.61
2023-03-26T13:49:05.552Z,46.25
2023-03-26T13:54:09.900Z,48.31
2023-03-26T13:59:40.634Z,53.76
2023-03-26T14:04:49.563Z,57.10
2023-03-26T14:10:01.828Z,55.27
2023-03-26T14:15:26.674Z,51.38
2023-03-26T14:20:56.560Z,47.72
2023-03-26T14:26:19.818Z,42.59
2023-03-26T14:31:51.498Z,38.47
2023-03-26T14:37:27.031Z,38.24
2023-03-26T14:42:37.399Z,40.92
2023-03-26T14:47:55.483Z,44.12
2023-03-26T14:53:01.792Z,46.89
2023-03-26T14:58:36.848Z,48.52
2023-03-26T15:04:16.855Z,53.32
2023-03-26T15:09:56.372Z,57.35
2023-03-26T15:14:57.890Z,59.32
2023-03-26T15:20:36.844Z,57.91
2023-03-26T15:26:16.042Z,55.79
2023-03-26T15:31:37.305Z,52.33
2023-03-26T15:37:17.696Z,49.88
2023-03-26T15:42:52.400Z,48.43
2023-03-26T15:48:12.451Z,47.10
2023-03-26T15:53:26.638Z,49.05
2023-03-26T15:58:44.191Z,50.56
2023-03-26T16:04:06.021Z,50.34
2023-03-26T16:09:40.417Z,51.19
2023-03-26T16:15:20.137Z,51.24
2023-03-26T16:20:35.291Z,50.34
2023-03-26T16:25:54.635Z,50.32
2023-03-26T16:31:23.486Z,51.68
2023-03-26T16:36:35.523Z,53.33
2023-03-26T16:41:39.854Z,54.61
2023-03-26T16:47:13.875Z,56.21
2023-03-26T16:52:34.571Z,57.38
2023-03-26T16:57:45.935Z,57.51
2023-03-26T17:03:13.106Z,58.04
2023-03-26T17:08:14.938Z,60.36
2023-03-26T17:13:55.450Z,60.22
2023-03-26T17:19:28.172Z,60.21
2023-03-26T17:24:55.870Z,60.99
2023-03-26T17:30:23.883Z,61.46
2023-03-26T17:35:45.076Z,63.48
2023-03-26T17:40:55.203Z,65.43
2023-03-26T17:46:02.876Z,66.11
2023-03-26T17:51:33.638Z,65.57
2023-03-26T17:56:37.877Z,67.04
2023-03-26T18:01:44.420Z,66.91
2023-03-26T18:07:16.718Z,68.61
2023-03-26T18:12:41.420Z,70.61
2023-03-26T18:17:46.286Z,68.85
2023-03-26T18:22:49.476Z,67.97
2023-03-26T18:27:51.492Z,69.25
2023-03-26T18:33:00.992Z,70.22
2023-03-26T18:38:04.098Z,71.93
2023-03-26T18:43:06.125Z,71.25
2023-03-26T18:48:10.541Z,73.86
2023-03-26T18:53:29.878Z,75.23
2023-03-26T18:58:39.157Z,74.92
2023-03-26T19:03:44.642Z,74.04
2023-03-26T19:08:48.262Z,75.43
2023-03-26T19:14:04.488Z,74.17
2023-03-26T19:19:07.573Z,73.61
2023-03-26T19:24:12.040Z,72.28
2023-03-26T19:29:17.344Z,72.98
2023-03-26T19:34:31.681Z,73.15
2023-03-26T19:39:44.083Z,72.76
2023-03-26T19:44:46.312Z,74.74
2023-03-26T19:49:51.268Z,75.56
2023-03-26T19:54:59.125Z,72.46
2023-03-26T20:00:07.903Z,76.08
2023-03-26T20:05:19.557Z,76.17
2023-03-26T20:10:21.136Z,76.47
2023-03-26T20:15:25.730Z,75.22
2023-03-26T20:20:30.692Z,75.15
2023-03-26T20:25:33.961Z,75.85
2023-03-26T20:30:38.036Z,74.52
2023-03-26T20:35:39.881Z,74.99
2023-03-26T20:40:42.402Z,75.87
2023-03-26T20:45:45.901Z,77.12
2023-03-26T20:50:50.764Z,76.55
2023-03-26T20:55:52.575Z,79.40
2023-03-26T21:00:56.955Z,78.98
2023-03-26T21:06:04.073Z,76.23
2023-03-26T21:11:16.114Z,75.20
2023-03-26T21:16:28.592Z,77.96
2023-03-26T21:21:47.652Z,76.56
2023-03-26T21:27:12.906Z,77.63
2023-03-26T21:32:15.097Z,76.70
2023-03-26T21:37:19.057Z,76.22
2023-03-26T21:42:20.905Z,76.70
2023-03-26T21:47:23.252Z,79.03
2023-03-26T21:52:25.389Z,79.36
2023-03-26T21:57:45.388Z,81.09
2023-03-26T22:03:08.409Z,79.34
2023-03-26T22:08:25.059Z,78.51
2023-03-26T22:13:27.308Z,77.74
2023-03-26T22:18:30.121Z,76.68
2023-03-26T22:23:36.708Z,75.55
2023-03-26T22:28:38.427Z,76.26
2023-03-26T22:33:43.477Z,77.15
2023-03-26T22:38:45.552Z,77.21
2023-03-26T22:43:47.434Z,77.84
2023-03-26T22:48:49.374Z,77.81
2023-03-26T22:53:52.075Z,77.16
2023-03-26T22:58:53.578Z,77.64
2023-03-26T23:03:55.096Z,77.41
2023-03-26T23:08:57.162Z,77.28
2023-03-26T23:13:59.188Z,77.54
2023-03-26T23:19:00.734Z,78.00
2023-03-26T23:24:02.754Z,77.97
2023-03-26T23:29:05.193Z,77.87
2023-03-26T23:34:07.042Z,77.67
2023-03-26T23:39:09.391Z,76.73
2023-03-26T23:44:14.499Z,76.65
2023-03-26T23:49:16.239Z,76.53
2023-03-26T23:54:19.166Z,76.88
2023-03-26T23:59:21.056Z,77.35
